createdAt,value
2022-09-01T00:01:41.446Z,101326.00
2022-09-01T00:04:11.296Z,101341.00
2022-09-01T00:06:38.534Z,101329.00
2022-09-01T00:09:07.772Z,101333.00
2022-09-01T00:11:34.764Z,101332.00
2022-09-01T00:14:02.072Z,101336.00
2022-09-01T00:16:29.892Z,101327.00
2022-09-01T00:18:56.511Z,101326.00
2022-09-01T00:21:28.960Z,101338.00
2022-09-01T00:23:55.554Z,101330.00
2022-09-01T00:26:22.132Z,101328.00
2022-09-01T00:28:48.698Z,101331.00
2022-09-01T00:31:15.994Z,101329.00
2022-09-01T00:33:42.639Z,101327.00
2022-09-01T00:36:09.725Z,101320.00
2022-09-01T00:38:36.458Z,101328.00
2022-09-01T00:41:03.079Z,101325.00
2022-09-01T00:43:45.003Z,101330.00
2022-09-01T00:46:18.236Z,101328.00
2022-09-01T00:48:52.581Z,101325.00
2022-09-01T00:51:19.486Z,101323.00
2022-09-01T00:53:46.335Z,101325.00
2022-09-01T00:56:13.636Z,101326.00
2022-09-01T00:58:40.630Z,101323.00
2022-09-01T01:01:08.812Z,101327.00
2022-09-01T01:03:35.744Z,101327.00
2022-09-01T01:06:08.192Z,101324.00
2022-09-01T01:08:37.752Z,101324.00
2022-09-01T01:11:07.793Z,101314.00
2022-09-01T01:13:57.067Z,101321.00
2022-09-01T01:16:25.284Z,101317.00
2022-09-01T01:18:52.151Z,101311.00
2022-09-01T01:21:44.355Z,101311.00
2022-09-01T01:24:28.496Z,101314.00
2022-09-01T01:27:00.135Z,101322.00
2022-09-01T01:29:31.834Z,101315.00
2022-09-01T01:31:58.874Z,101311.00
2022-09-01T01:34:25.482Z,101320.00
2022-09-01T01:36:52.815Z,101316.00
2022-09-01T01:39:25.254Z,101322.00
2022-09-01T01:41:52.980Z,101315.00
2022-09-01T01:44:23.947Z,101319.00
2022-09-01T01:46:52.551Z,101308.00
2022-09-01T01:49:22.630Z,101306.00
2022-09-01T01:51:54.008Z,101313.00
2022-09-01T01:54:20.626Z,101303.00
2022-09-01T01:56:47.402Z,101306.00
2022-09-01T01:59:15.375Z,101302.00
2022-09-01T02:01:44.204Z,101299.00
2022-09-01T02:04:11.309Z,101305.00
2022-09-01T02:06:42.720Z,101306.00
2022-09-01T02:09:09.579Z,101299.00
2022-09-01T02:11:37.413Z,101312.00
2022-09-01T02:14:06.785Z,101307.00
2022-09-01T02:16:34.567Z,101305.00
2022-09-01T02:19:04.250Z,101318.00
2022-09-01T02:21:30.850Z,101306.00
2022-09-01T02:24:03.594Z,101307.00
2022-09-01T02:26:40.593Z,101298.00
2022-09-01T02:29:17.844Z,101302.00
2022-09-01T02:31:46.466Z,101304.00
2022-09-01T02:34:16.318Z,101303.00
2022-09-01T02:36:47.944Z,101306.00
2022-09-01T02:39:26.637Z,101306.00
2022-09-01T02:41:53.825Z,101303.00
2022-09-01T02:44:24.921Z,101301.00
2022-09-01T02:46:51.517Z,101306.00
2022-09-01T02:49:25.769Z,101304.00
2022-09-01T02:51:54.206Z,101308.00
2022-09-01T02:54:24.701Z,101300.00
2022-09-01T02:56:54.481Z,101299.00
2022-09-01T02:59:26.295Z,101296.00
2022-09-01T03:01:54.295Z,101299.00
2022-09-01T03:04:22.421Z,101297.00
2022-09-01T03:06:50.019Z,101294.00
2022-09-01T03:09:18.284Z,101302.00
2022-09-01T03:11:48.044Z,101295.00
2022-09-01T03:14:15.084Z,101300.00
2022-09-01T03:16:41.722Z,101292.00
2022-09-01T03:19:09.580Z,101299.00
2022-09-01T03:21:40.886Z,101293.00
2022-09-01T03:24:16.798Z,101294.00
2022-09-01T03:26:44.728Z,101297.00
2022-09-01T03:29:15.401Z,101296.00
2022-09-01T03:31:42.863Z,101293.00
2022-09-01T03:34:10.960Z,101289.00
2022-09-01T03:36:50.052Z,101293.00
2022-09-01T03:39:20.813Z,101287.00
2022-09-01T03:41:47.591Z,101292.00
2022-09-01T03:44:15.103Z,101292.00
2022-09-01T03:46:42.500Z,101297.00
2022-09-01T03:49:12.230Z,101290.00
2022-09-01T03:51:39.669Z,101295.00
2022-09-01T03:54:08.154Z,101292.00
2022-09-01T03:56:35.347Z,101292.00
2022-09-01T03:59:02.526Z,101287.00
2022-09-01T04:01:38.079Z,101293.00
2022-09-01T04:04:06.595Z,101291.00
2022-09-01T04:06:33.340Z,101288.00
2022-09-01T04:09:02.780Z,101289.00
2022-09-01T04:11:33.410Z,101288.00
2022-09-01T04:14:00.866Z,101293.00
2022-09-01T04:16:52.136Z,101293.00
2022-09-01T04:19:30.491Z,101289.00
2022-09-01T04:22:02.332Z,101284.00
2022-09-01T04:24:45.620Z,101285.00
2022-09-01T04:27:13.923Z,101287.00
2022-09-01T04:29:41.801Z,101292.00
2022-09-01T04:32:11.139Z,101286.00
2022-09-01T04:34:45.017Z,101276.00
2022-09-01T04:37:18.673Z,101291.00
2022-09-01T04:39:55.613Z,101285.00
2022-09-01T04:42:24.696Z,101295.00
2022-09-01T04:44:53.799Z,101291.00
2022-09-01T04:47:31.742Z,101295.00
2022-09-01T04:50:13.601Z,101295.00
2022-09-01T04:52:42.088Z,101288.00
2022-09-01T04:55:19.494Z,101300.00
2022-09-01T04:57:47.426Z,101303.00
2022-09-01T05:00:22.316Z,101303.00
2022-09-01T05:02:54.858Z,101292.00
2022-09-01T05:05:24.380Z,101295.00
2022-09-01T05:07:55.407Z,101295.00
2022-09-01T05:10:23.434Z,101299.00
2022-09-01T05:13:12.376Z,101297.00
2022-09-01T05:15:46.548Z,101288.00
2022-09-01T05:18:23.254Z,101301.00
2022-09-01T05:20:53.144Z,101288.00
2022-09-01T05:23:20.503Z,101295.00
2022-09-01T05:25:49.530Z,101291.00
2022-09-01T05:28:19.067Z,101293.00
2022-09-01T05:30:47.823Z,101296.00
2022-09-01T05:33:21.642Z,101292.00
2022-09-01T05:36:03.163Z,101294.00
2022-09-01T05:38:30.750Z,101302.00
2022-09-01T05:41:04.144Z,101299.00
2022-09-01T05:43:32.426Z,101302.00
2022-09-01T05:46:06.948Z,101306.00
2022-09-01T05:48:39.685Z,101305.00
2022-09-01T05:51:22.250Z,101302.00
2022-09-01T05:53:58.782Z,101300.00
2022-09-01T05:56:27.524Z,101305.00
2022-09-01T06:01:43.875Z,101301.00
2022-09-01T06:04:13.877Z,101299.00
2022-09-01T06:07:04.041Z,101296.00
2022-09-01T06:09:33.060Z,101298.00
2022-09-01T06:11:59.700Z,101305.00
2022-09-01T06:14:26.632Z,101306.00
2022-09-01T06:16:58.103Z,101309.00
2022-09-01T06:19:24.750Z,101304.00
2022-09-01T06:21:51.359Z,101312.00
2022-09-01T06:24:18.000Z,101309.00
2022-09-01T06:26:46.241Z,101299.00
2022-09-01T06:29:15.406Z,101306.00
2022-09-01T06:31:51.860Z,101310.00
2022-09-01T06:34:20.003Z,101314.00
2022-09-01T06:36:49.454Z,101308.00
2022-09-01T06:39:20.249Z,101318.00
2022-09-01T06:41:52.826Z,101311.00
2022-09-01T06:44:23.512Z,101309.00
2022-09-01T06:47:01.511Z,101311.00
2022-09-01T06:49:34.769Z,101314.00
2022-09-01T06:52:04.576Z,101310.00
2022-09-01T06:54:34.989Z,101316.00
2022-09-01T06:58:03.528Z,101317.00
2022-09-01T06:59:52.396Z,101315.00
2022-09-01T07:02:20.236Z,101310.00
2022-09-01T07:08:07.236Z,101315.00
2022-09-01T07:12:07.296Z,101316.00
2022-09-01T07:14:21.547Z,101318.00
2022-09-01T07:16:52.420Z,101311.00
2022-09-01T07:19:20.815Z,101324.00
2022-09-01T07:22:09.515Z,101323.00
2022-09-01T07:24:43.475Z,101317.00
2022-09-01T07:27:40.661Z,101321.00
2022-09-01T07:30:09.635Z,101318.00
2022-09-01T07:32:43.612Z,101319.00
2022-09-01T07:35:15.562Z,101322.00
2022-09-01T07:43:44.794Z,101317.00
2022-09-01T07:46:37.513Z,101320.00
2022-09-01T07:51:55.171Z,101317.00
2022-09-01T07:54:24.004Z,101318.00
2022-09-01T07:56:51.168Z,101318.00
2022-09-01T07:59:18.301Z,101321.00
2022-09-01T08:01:53.391Z,101325.00
2022-09-01T08:04:23.061Z,101326.00
2022-09-01T08:06:50.244Z,101333.00
2022-09-01T08:09:33.054Z,101337.00
2022-09-01T08:12:05.333Z,101332.00
2022-09-01T08:14:37.520Z,101333.00
2022-09-01T08:19:53.603Z,101342.00
2022-09-01T08:22:34.147Z,101333.00
2022-09-01T08:25:12.247Z,101342.00
2022-09-01T08:27:38.900Z,101338.00
2022-09-01T08:30:08.671Z,101328.00
2022-09-01T08:32:36.651Z,101330.00
2022-09-01T08:35:04.820Z,101335.00
2022-09-01T08:37:31.633Z,101338.00
2022-09-01T08:39:58.323Z,101325.00
2022-09-01T08:43:02.757Z,101335.00
2022-09-01T08:45:34.111Z,101335.00
2022-09-01T08:49:16.082Z,101332.00
2022-09-01T08:51:25.506Z,101333.00
2022-09-01T08:54:03.917Z,101334.00
2022-09-01T08:56:32.143Z,101327.00
2022-09-01T08:59:00.213Z,101338.00
2022-09-01T09:01:45.232Z,101323.00
2022-09-01T09:04:47.520Z,101326.00
2022-09-01T09:07:46.199Z,101331.00
2022-09-01T09:10:23.142Z,101324.00
2022-09-01T09:13:02.166Z,101330.00
2022-09-01T09:15:47.769Z,101332.00
2022-09-01T09:18:56.197Z,101325.00
2022-09-01T09:21:26.039Z,101332.00
2022-09-01T09:24:15.623Z,101331.00
2022-09-01T09:26:50.814Z,101338.00
2022-09-01T09:29:18.560Z,101330.00
2022-09-01T09:31:49.932Z,101329.00
2022-09-01T09:34:32.642Z,101321.00
2022-09-01T09:37:23.187Z,101330.00
2022-09-01T09:40:15.299Z,101326.00
2022-09-01T09:42:54.110Z,101321.00
2022-09-01T09:45:26.633Z,101325.00
2022-09-01T09:47:57.714Z,101323.00
2022-09-01T09:50:29.505Z,101329.00
2022-09-01T09:53:18.616Z,101328.00
2022-09-01T09:55:58.932Z,101325.00
2022-09-01T09:58:29.812Z,101319.00
2022-09-01T10:01:24.284Z,101324.00
2022-09-01T10:03:56.991Z,101323.00
2022-09-01T10:06:30.331Z,101325.00
2022-09-01T10:08:57.703Z,101317.00
2022-09-01T10:11:43.280Z,101330.00
2022-09-01T10:14:23.576Z,101324.00
2022-09-01T10:17:07.169Z,101324.00
2022-09-01T10:19:35.920Z,101318.00
2022-09-01T10:22:03.134Z,101320.00
2022-09-01T10:24:39.559Z,101315.00
2022-09-01T10:27:18.836Z,101317.00
2022-09-01T10:32:55.697Z,101319.00
2022-09-01T10:35:26.053Z,101317.00
2022-09-01T10:37:53.929Z,101314.00
2022-09-01T10:40:35.421Z,101313.00
2022-09-01T10:43:36.323Z,101317.00
2022-09-01T10:46:24.824Z,101316.00
2022-09-01T10:48:55.793Z,101308.00
2022-09-01T10:51:29.049Z,101318.00
2022-09-01T10:54:03.893Z,101316.00
2022-09-01T10:56:42.949Z,101318.00
2022-09-01T10:59:36.117Z,101320.00
2022-09-01T11:02:26.018Z,101310.00
2022-09-01T11:05:00.361Z,101307.00
2022-09-01T11:07:50.260Z,101311.00
2022-09-01T11:10:35.593Z,101304.00
2022-09-01T11:13:14.915Z,101310.00
2022-09-01T11:15:42.939Z,101308.00
2022-09-01T11:18:29.578Z,101310.00
2022-09-01T11:21:18.153Z,101310.00
2022-09-01T11:23:46.998Z,101306.00
2022-09-01T11:26:32.509Z,101306.00
2022-09-01T11:28:59.469Z,101308.00
2022-09-01T11:31:30.164Z,101302.00
2022-09-01T11:34:11.048Z,101310.00
2022-09-01T11:36:49.218Z,101304.00
2022-09-01T11:39:30.015Z,101306.00
2022-09-01T11:42:04.272Z,101306.00
2022-09-01T11:44:36.510Z,101304.00
2022-09-01T11:47:09.569Z,101307.00
2022-09-01T11:49:48.866Z,101303.00
2022-09-01T11:52:17.212Z,101309.00
2022-09-01T11:54:46.651Z,101307.00
2022-09-01T11:57:31.826Z,101305.00
2022-09-01T12:00:00.458Z,101297.00
2022-09-01T12:02:30.092Z,101299.00
2022-09-01T12:04:57.899Z,101304.00
2022-09-01T12:07:33.465Z,101302.00
2022-09-01T12:10:02.055Z,101302.00
2022-09-01T12:12:33.641Z,101304.00
2022-09-01T12:15:07.279Z,101298.00
2022-09-01T12:17:35.341Z,101287.00
2022-09-01T12:20:25.516Z,101292.00
2022-09-01T12:22:55.864Z,101298.00
2022-09-01T12:25:25.847Z,101294.00
2022-09-01T12:27:53.446Z,101287.00
2022-09-01T12:30:21.151Z,101290.00
2022-09-01T12:33:22.757Z,101287.00
2022-09-01T12:35:43.830Z,101288.00
2022-09-01T12:38:19.649Z,101287.00
2022-09-01T12:40:56.999Z,101279.00
2022-09-01T12:43:41.938Z,101288.00
2022-09-01T12:46:10.977Z,101284.00
2022-09-01T12:48:39.985Z,101289.00
2022-09-01T12:51:30.910Z,101287.00
2022-09-01T12:54:04.212Z,101285.00
2022-09-01T12:56:33.244Z,101283.00
2022-09-01T12:59:14.118Z,101275.00
2022-09-01T13:01:43.111Z,101285.00
2022-09-01T13:04:24.643Z,101281.00
2022-09-01T13:06:51.850Z,101279.00
2022-09-01T13:09:21.840Z,101275.00
2022-09-01T13:14:34.936Z,101272.00
2022-09-01T13:17:01.513Z,101276.00
2022-09-01T13:19:30.498Z,101269.00
2022-09-01T13:21:57.450Z,101275.00
2022-09-01T13:24:28.571Z,101269.00
2022-09-01T13:29:43.847Z,101276.00
2022-09-01T13:32:18.315Z,101264.00
2022-09-01T13:34:46.435Z,101270.00
2022-09-01T13:37:13.068Z,101267.00
2022-09-01T13:39:40.078Z,101274.00
2022-09-01T13:42:06.989Z,101263.00
2022-09-01T13:44:34.061Z,101261.00
2022-09-01T13:47:27.720Z,101261.00
2022-09-01T13:52:34.221Z,101265.00
2022-09-01T13:55:01.744Z,101262.00
2022-09-01T13:57:28.274Z,101256.00
2022-09-01T14:00:03.478Z,101254.00
2022-09-01T14:02:38.933Z,101253.00
2022-09-01T14:05:05.927Z,101248.00
2022-09-01T14:07:32.574Z,101250.00
2022-09-01T14:10:00.385Z,101247.00
2022-09-01T14:12:27.086Z,101257.00
2022-09-01T14:17:40.504Z,101243.00
2022-09-01T14:20:09.543Z,101236.00
2022-09-01T14:22:38.549Z,101237.00
2022-09-01T14:25:05.762Z,101242.00
2022-09-01T14:27:32.526Z,101236.00
2022-09-01T14:29:59.053Z,101234.00
2022-09-01T14:32:26.789Z,101230.00
2022-09-01T14:34:54.728Z,101225.00
2022-09-01T14:37:21.570Z,101219.00
2022-09-01T14:39:55.897Z,101217.00
2022-09-01T14:42:25.717Z,101215.00
2022-09-01T14:44:52.328Z,101220.00
2022-09-01T14:47:21.281Z,101219.00
2022-09-01T14:49:47.827Z,101219.00
2022-09-01T14:52:14.625Z,101219.00
2022-09-01T14:54:44.731Z,101206.00
2022-09-01T14:59:59.264Z,101212.00
2022-09-01T15:02:32.169Z,101207.00
2022-09-01T15:05:01.751Z,101214.00
2022-09-01T15:07:28.542Z,101211.00
2022-09-01T15:09:55.166Z,101211.00
2022-09-01T15:12:22.429Z,101207.00
2022-09-01T15:14:49.141Z,101202.00
2022-09-01T15:17:15.647Z,101201.00
2022-09-01T15:19:42.207Z,101205.00
2022-09-01T15:22:10.793Z,101206.00
2022-09-01T15:24:48.785Z,101201.00
2022-09-01T15:27:18.939Z,101204.00
2022-09-01T15:29:47.830Z,101207.00
2022-09-01T15:32:27.437Z,101196.00
2022-09-01T15:34:55.467Z,101194.00
2022-09-01T15:37:21.987Z,101202.00
2022-09-01T15:39:48.542Z,101200.00
2022-09-01T15:42:16.777Z,101199.00
2022-09-01T15:44:47.489Z,101203.00
2022-09-01T15:47:14.007Z,101197.00
2022-09-01T15:49:41.327Z,101205.00
2022-09-01T15:52:08.086Z,101204.00
2022-09-01T15:54:37.919Z,101203.00
2022-09-01T15:57:05.649Z,101208.00
2022-09-01T15:59:35.302Z,101199.00
2022-09-01T16:02:02.980Z,101203.00
2022-09-01T16:04:29.725Z,101206.00
2022-09-01T16:06:56.835Z,101206.00
2022-09-01T16:09:26.622Z,101199.00
2022-09-01T16:11:54.052Z,101197.00
2022-09-01T16:14:23.513Z,101201.00
2022-09-01T16:20:11.158Z,101207.00
2022-09-01T16:22:43.297Z,101193.00
2022-09-01T16:25:21.932Z,101199.00
2022-09-01T16:27:48.492Z,101205.00
2022-09-01T16:30:21.161Z,101198.00
2022-09-01T16:32:49.360Z,101201.00
2022-09-01T16:35:19.654Z,101195.00
2022-09-01T16:38:00.553Z,101196.00
2022-09-01T16:40:43.521Z,101192.00
2022-09-01T16:43:35.585Z,101196.00
2022-09-01T16:46:25.056Z,101197.00
2022-09-01T16:49:18.106Z,101191.00
2022-09-01T16:51:54.953Z,101190.00
2022-09-01T16:54:27.240Z,101182.00
2022-09-01T16:57:07.748Z,101176.00
2022-09-01T16:59:56.020Z,101180.00
2022-09-01T17:02:35.994Z,101188.00
2022-09-01T17:05:16.998Z,101180.00
2022-09-01T17:07:52.672Z,101181.00
2022-09-01T17:10:33.359Z,101184.00
2022-09-01T17:13:06.883Z,101187.00
2022-09-01T17:15:41.935Z,101178.00
2022-09-01T17:18:22.995Z,101183.00
2022-09-01T17:20:57.922Z,101187.00
2022-09-01T17:23:28.487Z,101195.00
2022-09-01T17:26:01.742Z,101189.00
2022-09-01T17:28:40.275Z,101189.00
2022-09-01T17:31:16.258Z,101197.00
2022-09-01T17:33:53.150Z,101195.00
2022-09-01T17:36:46.939Z,101207.00
2022-09-01T17:39:17.220Z,101206.00
2022-09-01T17:41:55.819Z,101208.00
2022-09-01T17:44:35.552Z,101207.00
2022-09-01T17:47:23.708Z,101213.00
2022-09-01T17:49:50.694Z,101219.00
2022-09-01T17:52:43.037Z,101216.00
2022-09-01T17:55:40.435Z,101218.00
2022-09-01T17:58:45.093Z,101215.00
2022-09-01T18:01:37.449Z,101224.00
2022-09-01T18:04:14.650Z,101216.00
2022-09-01T18:07:04.312Z,101220.00
2022-09-01T18:09:44.139Z,101226.00
2022-09-01T18:12:14.767Z,101224.00
2022-09-01T18:15:09.294Z,101231.00
2022-09-01T18:17:40.531Z,101225.00
2022-09-01T18:20:26.990Z,101230.00
2022-09-01T18:23:07.236Z,101230.00
2022-09-01T18:25:43.423Z,101233.00
2022-09-01T18:28:10.211Z,101233.00
2022-09-01T18:30:53.035Z,101223.00
2022-09-01T18:33:28.075Z,101234.00
2022-09-01T18:36:06.825Z,101238.00
2022-09-01T18:38:52.730Z,101240.00
2022-09-01T18:41:43.837Z,101244.00
2022-09-01T18:44:32.107Z,101257.00
2022-09-01T18:47:01.049Z,101246.00
2022-09-01T18:49:58.686Z,101254.00
2022-09-01T18:52:35.102Z,101254.00
2022-09-01T18:55:23.356Z,101245.00
2022-09-01T18:57:53.749Z,101255.00
2022-09-01T19:00:22.997Z,101253.00
2022-09-01T19:03:08.580Z,101250.00
2022-09-01T19:05:38.313Z,101254.00
2022-09-01T19:08:28.574Z,101251.00
2022-09-01T19:11:30.465Z,101254.00
2022-09-01T19:14:08.646Z,101255.00
2022-09-01T19:17:08.912Z,101255.00
2022-09-01T19:19:44.169Z,101258.00
2022-09-01T19:22:19.302Z,101258.00
2022-09-01T19:24:52.709Z,101258.00
2022-09-01T19:27:25.534Z,101264.00
2022-09-01T19:29:58.664Z,101259.00
2022-09-01T19:32:27.794Z,101264.00
2022-09-01T19:35:11.764Z,101262.00
2022-09-01T19:37:39.504Z,101258.00
2022-09-01T19:40:07.142Z,101266.00
2022-09-01T19:42:40.973Z,101264.00
2022-09-01T19:45:15.595Z,101268.00
2022-09-01T19:47:47.885Z,101261.00
2022-09-01T19:50:36.766Z,101263.00
2022-09-01T19:53:08.313Z,101262.00
2022-09-01T19:55:36.966Z,101258.00
2022-09-01T19:58:06.953Z,101266.00
2022-09-01T20:00:55.798Z,101260.00
2022-09-01T20:03:30.369Z,101261.00
2022-09-01T20:06:02.920Z,101263.00
2022-09-01T20:08:39.734Z,101262.00
2022-09-01T20:11:06.264Z,101264.00
2022-09-01T20:13:54.060Z,101266.00
2022-09-01T20:16:32.902Z,101262.00
2022-09-01T20:19:04.745Z,101260.00
2022-09-01T20:21:33.071Z,101259.00
2022-09-01T20:24:27.642Z,101262.00
2022-09-01T20:27:04.391Z,101262.00
2022-09-01T20:29:36.974Z,101267.00
2022-09-01T20:32:04.075Z,101266.00
2022-09-01T20:34:48.407Z,101261.00
2022-09-01T20:37:24.526Z,101264.00
2022-09-01T20:40:10.054Z,101275.00
2022-09-01T20:42:46.062Z,101269.00
2022-09-01T20:45:19.628Z,101267.00
2022-09-01T20:47:51.880Z,101266.00
2022-09-01T20:50:19.956Z,101267.00
2022-09-01T20:52:51.005Z,101268.00
2022-09-01T20:55:36.799Z,101268.00
2022-09-01T20:58:12.544Z,101271.00
2022-09-01T21:00:50.708Z,101270.00
2022-09-01T21:03:20.743Z,101269.00
2022-09-01T21:06:09.609Z,101275.00
2022-09-01T21:08:49.012Z,101272.00
2022-09-01T21:11:18.521Z,101278.00
2022-09-01T21:14:24.001Z,101275.00
2022-09-01T21:17:09.232Z,101279.00
2022-09-01T21:19:54.466Z,101284.00
2022-09-01T21:22:22.396Z,101277.00
2022-09-01T21:24:49.842Z,101269.00
2022-09-01T21:27:20.703Z,101271.00
2022-09-01T21:29:59.491Z,101277.00
2022-09-01T21:32:29.018Z,101274.00
2022-09-01T21:34:56.361Z,101276.00
2022-09-01T21:37:25.398Z,101279.00
2022-09-01T21:39:53.478Z,101276.00
2022-09-01T21:42:44.916Z,101268.00
2022-09-01T21:45:15.020Z,101279.00
2022-09-01T21:47:43.993Z,101264.00
2022-09-01T21:50:11.251Z,101278.00
2022-09-01T21:52:38.229Z,101271.00
2022-09-01T21:55:06.061Z,101268.00
2022-09-01T21:57:33.420Z,101271.00
2022-09-01T22:00:01.726Z,101273.00
2022-09-01T22:02:28.770Z,101266.00
2022-09-01T22:04:56.162Z,101265.00
2022-09-01T22:07:22.693Z,101269.00
2022-09-01T22:09:50.157Z,101265.00
2022-09-01T22:12:16.740Z,101272.00
2022-09-01T22:14:43.279Z,101263.00
2022-09-01T22:17:10.057Z,101263.00
2022-09-01T22:19:36.659Z,101268.00
2022-09-01T22:22:03.649Z,101262.00
2022-09-01T22:24:30.472Z,101254.00
2022-09-01T22:26:57.085Z,101268.00
2022-09-01T22:29:23.684Z,101254.00
2022-09-01T22:31:50.219Z,101255.00
2022-09-01T22:34:16.925Z,101267.00
2022-09-01T22:36:46.169Z,101267.00
2022-09-01T22:39:14.120Z,101255.00
2022-09-01T22:41:41.308Z,101259.00
2022-09-01T22:44:08.421Z,101263.00
2022-09-01T22:46:36.571Z,101262.00
2022-09-01T22:49:04.084Z,101257.00
2022-09-01T22:51:32.913Z,101262.00
2022-09-01T22:53:59.477Z,101250.00
2022-09-01T22:56:29.541Z,101260.00
2022-09-01T22:58:57.847Z,101263.00
2022-09-01T23:01:27.117Z,101257.00
2022-09-01T23:03:54.791Z,101256.00
2022-09-01T23:06:27.410Z,101253.00
2022-09-01T23:08:55.949Z,101254.00
2022-09-01T23:11:22.828Z,101250.00
2022-09-01T23:13:49.525Z,101249.00
2022-09-01T23:16:16.419Z,101253.00
2022-09-01T23:18:45.721Z,101248.00
2022-09-01T23:21:14.927Z,101248.00
2022-09-01T23:23:42.137Z,101245.00
2022-09-01T23:26:10.955Z,101240.00
2022-09-01T23:28:40.345Z,101240.00
2022-09-01T23:31:09.249Z,101246.00
2022-09-01T23:33:36.142Z,101243.00
2022-09-01T23:36:06.670Z,101233.00
2022-09-01T23:38:33.395Z,101228.00
2022-09-01T23:41:00.218Z,101237.00
2022-09-01T23:43:27.438Z,101231.00
2022-09-01T23:45:56.425Z,101241.00
2022-09-01T23:48:23.461Z,101239.00
2022-09-01T23:51:01.752Z,101225.00
2022-09-01T23:53:30.202Z,101233.00
2022-09-01T23:55:59.153Z,101241.00
2022-09-01T23:58:27.050Z,101235.00
